Garden County Airport


Codes: KOKS/
Name: Garden County Airport
City: Oshkosh
Country: United States
Elevation: 3394 ft.

Photos at Garden County Airport


   Photos courtesy of SpottingLog. You can add your own sightings and photos by signing up for a free trial today.



No photos found.

Weather at Garden County Airport


Time (UTC)DescriptionTempratureWindCloud coverageVisibilityPressureHumidity
23-May-2024 18:00Clear Sky24°C13 mph, NW7%10000m1000hPa28%
23-May-2024 21:00Scattered Clouds24°C11 mph, N33%10000m999hPa27%
24-May-2024 00:00Light Rain19°C27 mph, NW52%10000m1002hPa41%
24-May-2024 03:00Overcast Clouds16°C27 mph, NW95%10000m1004hPa18%
24-May-2024 06:00Overcast Clouds11°C27 mph, NW97%10000m1008hPa40%
24-May-2024 09:00Scattered Clouds8°C29 mph, NW43%10000m1010hPa57%
24-May-2024 12:00Few Clouds8°C22 mph, NW22%10000m1012hPa60%
24-May-2024 15:00Clear Sky12°C20 mph, NW0%10000m1012hPa44%
24-May-2024 18:00Clear Sky17°C11 mph, NW0%10000m1010hPa28%
24-May-2024 21:00Clear Sky20°C4 mph, W0%10000m1008hPa25%
25-May-2024 00:00Clear Sky21°C9 mph, S7%10000m1006hPa24%
25-May-2024 03:00Broken Clouds15°C11 mph, SE54%10000m1007hPa41%
25-May-2024 06:00Scattered Clouds14°C16 mph, S45%10000m1006hPa41%
25-May-2024 09:00Broken Clouds14°C13 mph, S82%10000m1005hPa48%
25-May-2024 12:00Overcast Clouds14°C22 mph, S91%10000m1003hPa47%
25-May-2024 15:00Overcast Clouds17°C18 mph, S100%10000m1001hPa47%
25-May-2024 18:00Overcast Clouds23°C7 mph, SW100%10000m998hPa33%
25-May-2024 21:00Overcast Clouds25°C11 mph, NW91%10000m996hPa28%
26-May-2024 00:00Light Rain15°C11 mph, NW96%10000m998hPa69%
26-May-2024 03:00Overcast Clouds14°C11 mph, W98%10000m1000hPa74%
26-May-2024 06:00Light Rain13°C18 mph, W99%10000m1001hPa80%
26-May-2024 09:00Overcast Clouds13°C18 mph, W100%10000m1001hPa70%
26-May-2024 12:00Broken Clouds11°C13 mph, NW51%10000m1004hPa83%
26-May-2024 15:00Clear Sky16°C22 mph, NW2%10000m1005hPa41%
26-May-2024 18:00Clear Sky22°C20 mph, NW5%10000m1004hPa28%
26-May-2024 21:00Scattered Clouds24°C25 mph, W35%10000m1002hPa21%
27-May-2024 00:00Broken Clouds18°C22 mph, W68%10000m1006hPa35%
27-May-2024 03:00Scattered Clouds13°C22 mph, NW43%10000m1011hPa55%
27-May-2024 06:00Few Clouds11°C22 mph, NW23%10000m1014hPa64%
27-May-2024 09:00Overcast Clouds11°C18 mph, NW92%10000m1016hPa73%
27-May-2024 12:00Overcast Clouds12°C11 mph, NW93%10000m1017hPa70%
27-May-2024 15:00Few Clouds16°C9 mph, NW17%10000m1018hPa58%
27-May-2024 18:00Clear Sky20°C4 mph, NW9%10000m1017hPa41%
27-May-2024 21:00Clear Sky23°C9 mph, NW4%10000m1014hPa29%
28-May-2024 00:00Clear Sky24°C7 mph, NW5%10000m1013hPa26%
28-May-2024 03:00Clear Sky18°C2 mph, SW0%10000m1015hPa38%
28-May-2024 06:00Clear Sky16°C9 mph, N1%10000m1017hPa43%
28-May-2024 09:00Clear Sky13°C7 mph, NE0%10000m1018hPa60%
28-May-2024 12:00Few Clouds13°C7 mph, N13%10000m1020hPa58%
28-May-2024 15:00Clear Sky19°C4 mph, NE7%10000m1020hPa38%